sensor_id;sensor_type;location;lat;lon;timestamp;P1;durP1;ratioP1;P2;durP2;ratioP2
8102;SDS011;4094;49.948;11.574;2022-08-14T00:00:42;9.47;;;8.63;;
8102;SDS011;4094;49.948;11.574;2022-08-14T00:03:19;9.40;;;8.70;;
8102;SDS011;4094;49.948;11.574;2022-08-14T00:05:56;9.63;;;8.83;;
8102;SDS011;4094;49.948;11.574;2022-08-14T00:08:28;9.30;;;8.60;;
8102;SDS011;4094;49.948;11.574;2022-08-14T00:11:11;9.60;;;8.87;;
8102;SDS011;4094;49.948;11.574;2022-08-14T00:13:43;9.77;;;9.07;;
8102;SDS011;4094;49.948;11.574;2022-08-14T00:16:19;9.90;;;9.10;;
8102;SDS011;4094;49.948;11.574;2022-08-14T00:19:08;9.63;;;8.93;;
8102;SDS011;4094;49.948;11.574;2022-08-14T00:21:46;9.70;;;9.00;;
8102;SDS011;4094;49.948;11.574;2022-08-14T00:24:18;9.80;;;9.10;;
8102;SDS011;4094;49.948;11.574;2022-08-14T00:26:55;10.17;;;9.47;;
8102;SDS011;4094;49.948;11.574;2022-08-14T00:29:29;9.93;;;9.13;;
8102;SDS011;4094;49.948;11.574;2022-08-14T00:32:06;10.33;;;9.53;;
8102;SDS011;4094;49.948;11.574;2022-08-14T00:34:56;10.20;;;9.30;;
8102;SDS011;4094;49.948;11.574;2022-08-14T00:37:28;10.00;;;9.10;;
8102;SDS011;4094;49.948;11.574;2022-08-14T00:39:59;10.07;;;9.37;;
8102;SDS011;4094;49.948;11.574;2022-08-14T00:42:45;10.30;;;9.40;;
8102;SDS011;4094;49.948;11.574;2022-08-14T00:45:29;9.97;;;9.27;;
8102;SDS011;4094;49.948;11.574;2022-08-14T00:47:58;10.30;;;9.50;;
8102;SDS011;4094;49.948;11.574;2022-08-14T00:50:28;10.47;;;9.57;;
8102;SDS011;4094;49.948;11.574;2022-08-14T00:52:58;10.33;;;9.57;;
8102;SDS011;4094;49.948;11.574;2022-08-14T00:55:29;11.00;;;10.10;;
8102;SDS011;4094;49.948;11.574;2022-08-14T00:58:02;9.43;;;8.73;;
8102;SDS011;4094;49.948;11.574;2022-08-14T01:00:59;9.63;;;8.93;;
8102;SDS011;4094;49.948;11.574;2022-08-14T01:03:33;10.13;;;9.27;;
8102;SDS011;4094;49.948;11.574;2022-08-14T01:06:12;10.10;;;9.20;;
8102;SDS011;4094;49.948;11.574;2022-08-14T01:08:44;10.27;;;9.47;;
8102;SDS011;4094;49.948;11.574;2022-08-14T01:11:25;10.10;;;9.40;;
8102;SDS011;4094;49.948;11.574;2022-08-14T01:14:03;10.53;;;9.73;;
8102;SDS011;4094;49.948;11.574;2022-08-14T01:16:53;10.57;;;9.67;;
8102;SDS011;4094;49.948;11.574;2022-08-14T01:19:22;10.20;;;9.30;;
8102;SDS011;4094;49.948;11.574;2022-08-14T01:22:11;11.67;;;10.63;;
8102;SDS011;4094;49.948;11.574;2022-08-14T01:24:45;11.97;;;10.87;;
8102;SDS011;4094;49.948;11.574;2022-08-14T01:27:17;12.23;;;11.33;;
8102;SDS011;4094;49.948;11.574;2022-08-14T01:29:53;12.50;;;11.50;;
8102;SDS011;4094;49.948;11.574;2022-08-14T01:32:31;10.80;;;9.97;;
8102;SDS011;4094;49.948;11.574;2022-08-14T01:35:17;11.23;;;10.03;;
8102;SDS011;4094;49.948;11.574;2022-08-14T01:38:08;10.43;;;9.63;;
8102;SDS011;4094;49.948;11.574;2022-08-14T01:40:44;11.20;;;10.23;;
8102;SDS011;4094;49.948;11.574;2022-08-14T01:43:15;11.23;;;10.33;;
8102;SDS011;4094;49.948;11.574;2022-08-14T01:45:48;11.27;;;10.47;;
8102;SDS011;4094;49.948;11.574;2022-08-14T01:48:33;11.10;;;10.10;;
8102;SDS011;4094;49.948;11.574;2022-08-14T01:51:04;10.43;;;9.53;;
8102;SDS011;4094;49.948;11.574;2022-08-14T01:53:49;10.07;;;9.37;;
8102;SDS011;4094;49.948;11.574;2022-08-14T01:56:22;10.87;;;9.97;;
8102;SDS011;4094;49.948;11.574;2022-08-14T01:59:06;11.87;;;10.97;;
8102;SDS011;4094;49.948;11.574;2022-08-14T02:01:45;12.60;;;11.53;;
8102;SDS011;4094;49.948;11.574;2022-08-14T02:04:25;11.83;;;10.93;;
8102;SDS011;4094;49.948;11.574;2022-08-14T02:07:17;12.67;;;11.67;;
8102;SDS011;4094;49.948;11.574;2022-08-14T02:10:08;12.77;;;11.67;;
8102;SDS011;4094;49.948;11.574;2022-08-14T02:12:39;13.87;;;12.57;;
8102;SDS011;4094;49.948;11.574;2022-08-14T02:15:09;12.40;;;11.50;;
8102;SDS011;4094;49.948;11.574;2022-08-14T02:17:41;13.00;;;11.87;;
8102;SDS011;4094;49.948;11.574;2022-08-14T02:20:15;13.03;;;11.73;;
8102;SDS011;4094;49.948;11.574;2022-08-14T02:22:50;13.00;;;11.73;;
8102;SDS011;4094;49.948;11.574;2022-08-14T02:25:23;11.93;;;10.93;;
8102;SDS011;4094;49.948;11.574;2022-08-14T02:27:57;12.20;;;11.13;;
8102;SDS011;4094;49.948;11.574;2022-08-14T02:30:46;12.43;;;11.33;;
8102;SDS011;4094;49.948;11.574;2022-08-14T02:33:19;12.73;;;11.63;;
8102;SDS011;4094;49.948;11.574;2022-08-14T02:35:49;12.17;;;11.23;;
8102;SDS011;4094;49.948;11.574;2022-08-14T02:38:39;12.33;;;11.33;;
8102;SDS011;4094;49.948;11.574;2022-08-14T02:41:11;12.03;;;11.13;;
8102;SDS011;4094;49.948;11.574;2022-08-14T02:43:42;12.00;;;11.00;;
8102;SDS011;4094;49.948;11.574;2022-08-14T02:46:14;12.77;;;11.67;;
8102;SDS011;4094;49.948;11.574;2022-08-14T02:48:53;12.10;;;11.13;;
8102;SDS011;4094;49.948;11.574;2022-08-14T02:51:32;12.07;;;11.17;;
8102;SDS011;4094;49.948;11.574;2022-08-14T02:54:03;11.63;;;10.73;;
8102;SDS011;4094;49.948;11.574;2022-08-14T02:56:35;12.00;;;11.10;;
8102;SDS011;4094;49.948;11.574;2022-08-14T02:59:25;12.07;;;11.07;;
8102;SDS011;4094;49.948;11.574;2022-08-14T03:02:00;11.63;;;10.63;;
8102;SDS011;4094;49.948;11.574;2022-08-14T03:04:31;12.10;;;11.20;;
8102;SDS011;4094;49.948;11.574;2022-08-14T03:07:00;11.97;;;11.07;;
8102;SDS011;4094;49.948;11.574;2022-08-14T03:09:35;11.80;;;10.90;;
8102;SDS011;4094;49.948;11.574;2022-08-14T03:12:26;11.83;;;10.93;;
8102;SDS011;4094;49.948;11.574;2022-08-14T03:14:59;11.60;;;10.60;;
8102;SDS011;4094;49.948;11.574;2022-08-14T03:17:42;11.43;;;10.60;;
8102;SDS011;4094;49.948;11.574;2022-08-14T03:20:25;11.40;;;10.50;;
8102;SDS011;4094;49.948;11.574;2022-08-14T03:22:55;12.70;;;11.47;;
8102;SDS011;4094;49.948;11.574;2022-08-14T03:25:30;12.23;;;11.20;;
8102;SDS011;4094;49.948;11.574;2022-08-14T03:28:06;12.30;;;11.40;;
8102;SDS011;4094;49.948;11.574;2022-08-14T03:30:55;13.97;;;12.77;;
8102;SDS011;4094;49.948;11.574;2022-08-14T03:33:26;13.43;;;12.23;;
8102;SDS011;4094;49.948;11.574;2022-08-14T03:36:06;14.07;;;12.97;;
8102;SDS011;4094;49.948;11.574;2022-08-14T03:38:59;13.77;;;12.67;;
8102;SDS011;4094;49.948;11.574;2022-08-14T03:41:50;13.10;;;12.10;;
8102;SDS011;4094;49.948;11.574;2022-08-14T03:44:23;13.60;;;12.37;;
8102;SDS011;4094;49.948;11.574;2022-08-14T03:47:12;13.40;;;12.30;;
8102;SDS011;4094;49.948;11.574;2022-08-14T03:49:42;13.10;;;12.10;;
8102;SDS011;4094;49.948;11.574;2022-08-14T03:52:16;14.17;;;13.07;;
8102;SDS011;4094;49.948;11.574;2022-08-14T03:55:06;13.13;;;12.10;;
8102;SDS011;4094;49.948;11.574;2022-08-14T03:57:38;14.10;;;12.90;;
8102;SDS011;4094;49.948;11.574;2022-08-14T04:00:11;13.80;;;12.50;;
8102;SDS011;4094;49.948;11.574;2022-08-14T04:03:00;13.27;;;12.17;;
8102;SDS011;4094;49.948;11.574;2022-08-14T04:05:33;13.70;;;12.50;;
8102;SDS011;4094;49.948;11.574;2022-08-14T04:08:09;13.80;;;12.70;;
8102;SDS011;4094;49.948;11.574;2022-08-14T04:10:57;15.87;;;14.23;;
8102;SDS011;4094;49.948;11.574;2022-08-14T04:13:28;15.27;;;13.70;;
8102;SDS011;4094;49.948;11.574;2022-08-14T04:16:02;14.97;;;13.50;;
8102;SDS011;4094;49.948;11.574;2022-08-14T04:18:38;14.20;;;12.73;;
8102;SDS011;4094;49.948;11.574;2022-08-14T04:21:10;14.30;;;13.10;;
8102;SDS011;4094;49.948;11.574;2022-08-14T04:23:42;14.30;;;12.83;;
8102;SDS011;4094;49.948;11.574;2022-08-14T04:26:24;15.60;;;13.27;;
8102;SDS011;4094;49.948;11.574;2022-08-14T04:29:09;14.43;;;12.93;;
8102;SDS011;4094;49.948;11.574;2022-08-14T04:31:43;14.63;;;13.30;;
8102;SDS011;4094;49.948;11.574;2022-08-14T04:34:33;14.43;;;13.07;;
8102;SDS011;4094;49.948;11.574;2022-08-14T04:37:08;14.07;;;12.97;;
8102;SDS011;4094;49.948;11.574;2022-08-14T04:39:55;14.17;;;12.97;;
8102;SDS011;4094;49.948;11.574;2022-08-14T04:42:41;14.20;;;12.90;;
8102;SDS011;4094;49.948;11.574;2022-08-14T04:45:28;14.10;;;13.00;;
8102;SDS011;4094;49.948;11.574;2022-08-14T04:48:09;14.50;;;13.30;;
8102;SDS011;4094;49.948;11.574;2022-08-14T04:51:02;14.57;;;13.40;;
8102;SDS011;4094;49.948;11.574;2022-08-14T04:53:34;13.47;;;12.57;;
8102;SDS011;4094;49.948;11.574;2022-08-14T04:56:10;14.23;;;13.13;;
8102;SDS011;4094;49.948;11.574;2022-08-14T04:59:01;13.90;;;12.60;;
8102;SDS011;4094;49.948;11.574;2022-08-14T05:01:38;14.33;;;13.13;;
8102;SDS011;4094;49.948;11.574;2022-08-14T05:04:17;14.53;;;13.20;;
8102;SDS011;4094;49.948;11.574;2022-08-14T05:06:48;13.50;;;12.47;;
8102;SDS011;4094;49.948;11.574;2022-08-14T05:09:21;14.10;;;13.00;;
8102;SDS011;4094;49.948;11.574;2022-08-14T05:11:56;13.93;;;12.93;;
8102;SDS011;4094;49.948;11.574;2022-08-14T05:14:45;13.50;;;12.30;;
8102;SDS011;4094;49.948;11.574;2022-08-14T05:17:21;14.37;;;13.17;;
8102;SDS011;4094;49.948;11.574;2022-08-14T05:20:12;14.90;;;13.70;;
8102;SDS011;4094;49.948;11.574;2022-08-14T05:23:01;13.20;;;12.20;;
8102;SDS011;4094;49.948;11.574;2022-08-14T05:25:31;14.60;;;13.40;;
8102;SDS011;4094;49.948;11.574;2022-08-14T05:28:07;14.63;;;13.30;;
8102;SDS011;4094;49.948;11.574;2022-08-14T05:30:43;14.70;;;13.50;;
8102;SDS011;4094;49.948;11.574;2022-08-14T05:33:14;14.43;;;13.37;;
8102;SDS011;4094;49.948;11.574;2022-08-14T05:35:47;13.83;;;12.73;;
8102;SDS011;4094;49.948;11.574;2022-08-14T05:38:18;14.13;;;13.07;;
8102;SDS011;4094;49.948;11.574;2022-08-14T05:41:01;14.03;;;12.83;;
8102;SDS011;4094;49.948;11.574;2022-08-14T05:43:34;14.03;;;12.73;;
8102;SDS011;4094;49.948;11.574;2022-08-14T05:46:09;13.83;;;12.63;;
8102;SDS011;4094;49.948;11.574;2022-08-14T05:48:42;13.27;;;11.97;;
8102;SDS011;4094;49.948;11.574;2022-08-14T05:51:15;13.03;;;12.03;;
8102;SDS011;4094;49.948;11.574;2022-08-14T05:53:44;13.67;;;12.57;;
8102;SDS011;4094;49.948;11.574;2022-08-14T05:56:33;12.73;;;11.73;;
8102;SDS011;4094;49.948;11.574;2022-08-14T05:59:03;13.90;;;12.80;;
8102;SDS011;4094;49.948;11.574;2022-08-14T06:01:33;12.60;;;11.60;;
8102;SDS011;4094;49.948;11.574;2022-08-14T06:04:03;13.57;;;12.50;;
8102;SDS011;4094;49.948;11.574;2022-08-14T06:06:33;12.57;;;11.50;;
8102;SDS011;4094;49.948;11.574;2022-08-14T06:09:05;13.37;;;11.97;;
8102;SDS011;4094;49.948;11.574;2022-08-14T06:11:36;12.00;;;11.00;;
8102;SDS011;4094;49.948;11.574;2022-08-14T06:14:05;12.70;;;11.70;;
8102;SDS011;4094;49.948;11.574;2022-08-14T06:16:50;12.00;;;11.10;;
8102;SDS011;4094;49.948;11.574;2022-08-14T06:19:19;11.97;;;11.00;;
8102;SDS011;4094;49.948;11.574;2022-08-14T06:21:51;11.87;;;10.97;;
8102;SDS011;4094;49.948;11.574;2022-08-14T06:24:26;12.03;;;11.23;;
8102;SDS011;4094;49.948;11.574;2022-08-14T06:27:00;12.27;;;11.37;;
8102;SDS011;4094;49.948;11.574;2022-08-14T06:29:33;11.17;;;10.27;;
8102;SDS011;4094;49.948;11.574;2022-08-14T06:32:03;11.60;;;10.70;;
8102;SDS011;4094;49.948;11.574;2022-08-14T06:34:52;12.10;;;11.10;;
8102;SDS011;4094;49.948;11.574;2022-08-14T06:37:42;10.80;;;9.90;;
8102;SDS011;4094;49.948;11.574;2022-08-14T06:40:15;10.77;;;9.97;;
8102;SDS011;4094;49.948;11.574;2022-08-14T06:42:54;10.53;;;9.63;;
8102;SDS011;4094;49.948;11.574;2022-08-14T06:45:30;10.40;;;9.60;;
8102;SDS011;4094;49.948;11.574;2022-08-14T06:48:00;10.67;;;9.77;;
8102;SDS011;4094;49.948;11.574;2022-08-14T06:50:39;10.10;;;9.30;;
8102;SDS011;4094;49.948;11.574;2022-08-14T06:53:13;9.60;;;8.90;;
8102;SDS011;4094;49.948;11.574;2022-08-14T06:55:46;10.30;;;9.40;;
8102;SDS011;4094;49.948;11.574;2022-08-14T06:58:28;10.63;;;8.90;;
8102;SDS011;4094;49.948;11.574;2022-08-14T07:00:59;10.80;;;9.90;;
8102;SDS011;4094;49.948;11.574;2022-08-14T07:03:54;9.63;;;8.90;;
8102;SDS011;4094;49.948;11.574;2022-08-14T07:06:51;9.87;;;9.07;;
8102;SDS011;4094;49.948;11.574;2022-08-14T07:09:27;9.73;;;8.93;;
8102;SDS011;4094;49.948;11.574;2022-08-14T07:12:17;9.23;;;8.53;;
8102;SDS011;4094;49.948;11.574;2022-08-14T07:15:07;9.17;;;8.47;;
8102;SDS011;4094;49.948;11.574;2022-08-14T07:17:43;8.43;;;7.83;;
8102;SDS011;4094;49.948;11.574;2022-08-14T07:20:18;9.10;;;8.40;;
8102;SDS011;4094;49.948;11.574;2022-08-14T07:22:58;8.97;;;8.27;;
8102;SDS011;4094;49.948;11.574;2022-08-14T07:25:36;8.77;;;8.00;;
8102;SDS011;4094;49.948;11.574;2022-08-14T07:28:09;8.03;;;7.33;;
8102;SDS011;4094;49.948;11.574;2022-08-14T07:30:47;7.87;;;7.17;;
8102;SDS011;4094;49.948;11.574;2022-08-14T07:33:18;7.87;;;7.27;;
8102;SDS011;4094;49.948;11.574;2022-08-14T07:35:56;7.63;;;7.03;;
8102;SDS011;4094;49.948;11.574;2022-08-14T07:38:26;8.37;;;7.50;;
8102;SDS011;4094;49.948;11.574;2022-08-14T07:41:05;7.10;;;6.60;;
8102;SDS011;4094;49.948;11.574;2022-08-14T07:43:42;6.43;;;5.93;;
8102;SDS011;4094;49.948;11.574;2022-08-14T07:46:22;7.80;;;7.20;;
8102;SDS011;4094;49.948;11.574;2022-08-14T07:48:56;7.30;;;6.70;;
8102;SDS011;4094;49.948;11.574;2022-08-14T07:51:25;6.90;;;6.30;;
8102;SDS011;4094;49.948;11.574;2022-08-14T07:54:04;6.37;;;5.97;;
8102;SDS011;4094;49.948;11.574;2022-08-14T07:56:39;7.03;;;6.43;;
8102;SDS011;4094;49.948;11.574;2022-08-14T07:59:16;6.57;;;6.13;;
8102;SDS011;4094;49.948;11.574;2022-08-14T08:02:08;7.10;;;6.43;;
8102;SDS011;4094;49.948;11.574;2022-08-14T08:04:47;6.60;;;6.00;;
8102;SDS011;4094;49.948;11.574;2022-08-14T08:07:21;6.73;;;6.13;;
8102;SDS011;4094;49.948;11.574;2022-08-14T08:09:57;6.00;;;5.50;;
8102;SDS011;4094;49.948;11.574;2022-08-14T08:12:30;5.83;;;5.40;;
8102;SDS011;4094;49.948;11.574;2022-08-14T08:15:04;6.03;;;5.53;;
8102;SDS011;4094;49.948;11.574;2022-08-14T08:17:35;6.47;;;5.60;;
8102;SDS011;4094;49.948;11.574;2022-08-14T08:20:13;5.73;;;5.33;;
8102;SDS011;4094;49.948;11.574;2022-08-14T08:22:46;5.73;;;5.17;;
8102;SDS011;4094;49.948;11.574;2022-08-14T08:25:22;5.90;;;5.37;;
8102;SDS011;4094;49.948;11.574;2022-08-14T08:27:54;5.23;;;4.73;;
8102;SDS011;4094;49.948;11.574;2022-08-14T08:30:25;5.77;;;5.27;;
8102;SDS011;4094;49.948;11.574;2022-08-14T08:32:56;5.90;;;5.40;;
8102;SDS011;4094;49.948;11.574;2022-08-14T08:35:30;5.77;;;5.37;;
8102;SDS011;4094;49.948;11.574;2022-08-14T08:38:17;6.70;;;6.10;;
8102;SDS011;4094;49.948;11.574;2022-08-14T08:41:07;5.87;;;5.37;;
8102;SDS011;4094;49.948;11.574;2022-08-14T08:43:39;6.00;;;5.53;;
8102;SDS011;4094;49.948;11.574;2022-08-14T08:46:13;5.90;;;5.40;;
8102;SDS011;4094;49.948;11.574;2022-08-14T08:48:51;6.00;;;5.50;;
8102;SDS011;4094;49.948;11.574;2022-08-14T08:51:22;5.80;;;5.40;;
8102;SDS011;4094;49.948;11.574;2022-08-14T08:54:02;5.60;;;5.20;;
8102;SDS011;4094;49.948;11.574;2022-08-14T08:56:36;5.50;;;5.10;;
8102;SDS011;4094;49.948;11.574;2022-08-14T08:59:18;5.93;;;5.53;;
8102;SDS011;4094;49.948;11.574;2022-08-14T09:01:54;5.80;;;5.30;;
8102;SDS011;4094;49.948;11.574;2022-08-14T09:04:26;5.50;;;4.93;;
8102;SDS011;4094;49.948;11.574;2022-08-14T09:07:01;5.60;;;5.20;;
8102;SDS011;4094;49.948;11.574;2022-08-14T09:09:38;5.37;;;4.87;;
8102;SDS011;4094;49.948;11.574;2022-08-14T09:12:27;6.07;;;5.57;;
8102;SDS011;4094;49.948;11.574;2022-08-14T09:15:01;5.53;;;5.13;;
8102;SDS011;4094;49.948;11.574;2022-08-14T09:17:38;6.17;;;5.67;;
8102;SDS011;4094;49.948;11.574;2022-08-14T09:20:09;6.17;;;5.13;;
8102;SDS011;4094;49.948;11.574;2022-08-14T09:22:53;4.87;;;4.57;;
8102;SDS011;4094;49.948;11.574;2022-08-14T09:25:22;5.20;;;4.80;;
8102;SDS011;4094;49.948;11.574;2022-08-14T09:28:13;5.83;;;5.33;;
8102;SDS011;4094;49.948;11.574;2022-08-14T09:30:46;5.90;;;5.40;;
8102;SDS011;4094;49.948;11.574;2022-08-14T09:33:21;6.07;;;5.57;;
8102;SDS011;4094;49.948;11.574;2022-08-14T09:36:02;5.90;;;5.30;;
8102;SDS011;4094;49.948;11.574;2022-08-14T09:38:45;5.97;;;5.43;;
8102;SDS011;4094;49.948;11.574;2022-08-14T09:41:22;5.80;;;5.30;;
8102;SDS011;4094;49.948;11.574;2022-08-14T09:44:27;5.60;;;5.10;;
8102;SDS011;4094;49.948;11.574;2022-08-14T09:47:10;5.63;;;5.23;;
8102;SDS011;4094;49.948;11.574;2022-08-14T09:49:41;5.23;;;4.73;;
8102;SDS011;4094;49.948;11.574;2022-08-14T09:52:19;6.50;;;5.10;;
8102;SDS011;4094;49.948;11.574;2022-08-14T09:55:00;6.10;;;5.50;;
8102;SDS011;4094;49.948;11.574;2022-08-14T09:57:30;5.60;;;5.20;;
8102;SDS011;4094;49.948;11.574;2022-08-14T10:00:08;6.40;;;5.77;;
8102;SDS011;4094;49.948;11.574;2022-08-14T10:02:58;6.07;;;5.53;;
8102;SDS011;4094;49.948;11.574;2022-08-14T10:05:33;5.90;;;5.33;;
8102;SDS011;4094;49.948;11.574;2022-08-14T10:08:15;6.00;;;5.40;;
8102;SDS011;4094;49.948;11.574;2022-08-14T10:10:53;5.67;;;4.90;;
8102;SDS011;4094;49.948;11.574;2022-08-14T10:13:29;6.07;;;5.47;;
8102;SDS011;4094;49.948;11.574;2022-08-14T10:16:19;5.90;;;5.40;;
8102;SDS011;4094;49.948;11.574;2022-08-14T10:19:02;5.33;;;4.83;;
8102;SDS011;4094;49.948;11.574;2022-08-14T10:21:33;5.40;;;4.90;;
8102;SDS011;4094;49.948;11.574;2022-08-14T10:24:23;5.00;;;4.60;;
8102;SDS011;4094;49.948;11.574;2022-08-14T10:27:11;5.93;;;5.33;;
8102;SDS011;4094;49.948;11.574;2022-08-14T10:29:46;5.93;;;5.33;;
8102;SDS011;4094;49.948;11.574;2022-08-14T10:32:17;6.37;;;5.77;;
8102;SDS011;4094;49.948;11.574;2022-08-14T10:35:05;5.23;;;4.83;;
8102;SDS011;4094;49.948;11.574;2022-08-14T10:37:43;4.80;;;4.40;;
8102;SDS011;4094;49.948;11.574;2022-08-14T10:40:24;5.33;;;4.93;;
8102;SDS011;4094;49.948;11.574;2022-08-14T10:43:17;5.27;;;4.77;;
8102;SDS011;4094;49.948;11.574;2022-08-14T10:45:53;5.20;;;4.80;;
8102;SDS011;4094;49.948;11.574;2022-08-14T10:48:54;5.00;;;4.60;;
8102;SDS011;4094;49.948;11.574;2022-08-14T10:51:26;5.50;;;5.00;;
8102;SDS011;4094;49.948;11.574;2022-08-14T10:54:05;5.00;;;4.53;;
8102;SDS011;4094;49.948;11.574;2022-08-14T10:56:56;5.17;;;4.73;;
8102;SDS011;4094;49.948;11.574;2022-08-14T10:59:25;5.47;;;4.97;;
8102;SDS011;4094;49.948;11.574;2022-08-14T11:02:02;5.20;;;4.77;;
8102;SDS011;4094;49.948;11.574;2022-08-14T11:04:31;4.97;;;4.47;;
8102;SDS011;4094;49.948;11.574;2022-08-14T11:07:12;5.37;;;4.60;;
8102;SDS011;4094;49.948;11.574;2022-08-14T11:09:51;6.50;;;5.00;;
8102;SDS011;4094;49.948;11.574;2022-08-14T11:12:22;5.87;;;4.67;;
8102;SDS011;4094;49.948;11.574;2022-08-14T11:15:03;4.90;;;4.50;;
8102;SDS011;4094;49.948;11.574;2022-08-14T11:17:34;5.20;;;4.70;;
8102;SDS011;4094;49.948;11.574;2022-08-14T11:20:06;5.20;;;4.70;;
8102;SDS011;4094;49.948;11.574;2022-08-14T11:22:44;4.93;;;4.53;;
8102;SDS011;4094;49.948;11.574;2022-08-14T11:25:25;7.30;;;5.13;;
8102;SDS011;4094;49.948;11.574;2022-08-14T11:28:09;5.47;;;4.53;;
8102;SDS011;4094;49.948;11.574;2022-08-14T11:30:46;5.00;;;4.60;;
8102;SDS011;4094;49.948;11.574;2022-08-14T11:33:21;4.97;;;4.57;;
8102;SDS011;4094;49.948;11.574;2022-08-14T11:35:51;5.00;;;4.60;;
8102;SDS011;4094;49.948;11.574;2022-08-14T11:38:27;4.80;;;4.40;;
8102;SDS011;4094;49.948;11.574;2022-08-14T11:41:04;4.47;;;4.17;;
8102;SDS011;4094;49.948;11.574;2022-08-14T11:43:37;5.00;;;4.60;;
8102;SDS011;4094;49.948;11.574;2022-08-14T11:46:08;5.57;;;4.97;;
8102;SDS011;4094;49.948;11.574;2022-08-14T11:48:56;4.87;;;4.47;;
8102;SDS011;4094;49.948;11.574;2022-08-14T11:51:32;4.97;;;4.57;;
8102;SDS011;4094;49.948;11.574;2022-08-14T11:54:22;5.00;;;4.60;;
8102;SDS011;4094;49.948;11.574;2022-08-14T11:57:01;4.87;;;4.37;;
8102;SDS011;4094;49.948;11.574;2022-08-14T11:59:31;4.63;;;4.17;;
8102;SDS011;4094;49.948;11.574;2022-08-14T12:02:08;4.50;;;4.10;;
8102;SDS011;4094;49.948;11.574;2022-08-14T12:05:03;5.37;;;4.47;;
8102;SDS011;4094;49.948;11.574;2022-08-14T12:07:46;4.47;;;4.17;;
8102;SDS011;4094;49.948;11.574;2022-08-14T12:10:17;5.10;;;4.70;;
8102;SDS011;4094;49.948;11.574;2022-08-14T12:13:09;5.33;;;4.53;;
8102;SDS011;4094;49.948;11.574;2022-08-14T12:15:44;5.60;;;4.37;;
8102;SDS011;4094;49.948;11.574;2022-08-14T12:18:27;4.53;;;4.13;;
8102;SDS011;4094;49.948;11.574;2022-08-14T12:21:09;4.77;;;4.30;;
8102;SDS011;4094;49.948;11.574;2022-08-14T12:23:47;4.20;;;3.90;;
8102;SDS011;4094;49.948;11.574;2022-08-14T12:26:32;4.90;;;4.30;;
8102;SDS011;4094;49.948;11.574;2022-08-14T12:29:08;4.30;;;3.90;;
8102;SDS011;4094;49.948;11.574;2022-08-14T12:31:39;4.40;;;4.00;;
8102;SDS011;4094;49.948;11.574;2022-08-14T12:34:13;4.70;;;4.20;;
8102;SDS011;4094;49.948;11.574;2022-08-14T12:36:46;4.73;;;4.33;;
8102;SDS011;4094;49.948;11.574;2022-08-14T12:39:16;4.70;;;4.30;;
8102;SDS011;4094;49.948;11.574;2022-08-14T12:41:49;4.33;;;3.93;;
8102;SDS011;4094;49.948;11.574;2022-08-14T12:44:30;4.93;;;4.23;;
8102;SDS011;4094;49.948;11.574;2022-08-14T12:47:05;4.50;;;4.10;;
8102;SDS011;4094;49.948;11.574;2022-08-14T12:49:46;4.63;;;3.83;;
8102;SDS011;4094;49.948;11.574;2022-08-14T12:52:26;4.27;;;3.93;;
8102;SDS011;4094;49.948;11.574;2022-08-14T12:55:17;4.17;;;3.73;;
8102;SDS011;4094;49.948;11.574;2022-08-14T12:57:50;3.93;;;3.43;;
8102;SDS011;4094;49.948;11.574;2022-08-14T13:00:22;4.30;;;3.67;;
8102;SDS011;4094;49.948;11.574;2022-08-14T13:02:52;5.03;;;4.33;;
8102;SDS011;4094;49.948;11.574;2022-08-14T13:05:23;4.53;;;3.87;;
8102;SDS011;4094;49.948;11.574;2022-08-14T13:07:56;4.60;;;4.20;;
8102;SDS011;4094;49.948;11.574;2022-08-14T13:10:25;5.57;;;4.07;;
8102;SDS011;4094;49.948;11.574;2022-08-14T13:13:19;4.73;;;3.80;;
8102;SDS011;4094;49.948;11.574;2022-08-14T13:15:52;4.30;;;3.97;;
8102;SDS011;4094;49.948;11.574;2022-08-14T13:18:24;4.60;;;4.20;;
8102;SDS011;4094;49.948;11.574;2022-08-14T13:20:55;4.23;;;3.93;;
8102;SDS011;4094;49.948;11.574;2022-08-14T13:23:31;4.30;;;3.90;;
8102;SDS011;4094;49.948;11.574;2022-08-14T13:26:03;4.53;;;4.07;;
8102;SDS011;4094;49.948;11.574;2022-08-14T13:28:33;3.80;;;3.50;;
8102;SDS011;4094;49.948;11.574;2022-08-14T13:31:25;6.03;;;4.00;;
8102;SDS011;4094;49.948;11.574;2022-08-14T13:34:00;3.90;;;3.60;;
8102;SDS011;4094;49.948;11.574;2022-08-14T13:36:31;4.30;;;4.00;;
8102;SDS011;4094;49.948;11.574;2022-08-14T13:39:21;4.03;;;3.73;;
8102;SDS011;4094;49.948;11.574;2022-08-14T13:41:52;5.20;;;4.50;;
8102;SDS011;4094;49.948;11.574;2022-08-14T13:44:25;4.30;;;3.83;;
8102;SDS011;4094;49.948;11.574;2022-08-14T13:46:55;4.53;;;3.60;;
8102;SDS011;4094;49.948;11.574;2022-08-14T13:49:24;4.40;;;3.80;;
8102;SDS011;4094;49.948;11.574;2022-08-14T13:51:55;4.70;;;4.30;;
8102;SDS011;4094;49.948;11.574;2022-08-14T13:54:26;4.50;;;4.10;;
8102;SDS011;4094;49.948;11.574;2022-08-14T13:56:59;4.43;;;4.03;;
8102;SDS011;4094;49.948;11.574;2022-08-14T13:59:32;7.13;;;4.10;;
8102;SDS011;4094;49.948;11.574;2022-08-14T14:02:05;4.50;;;4.10;;
8102;SDS011;4094;49.948;11.574;2022-08-14T14:04:37;3.80;;;3.50;;
8102;SDS011;4094;49.948;11.574;2022-08-14T14:07:08;4.23;;;3.80;;
8102;SDS011;4094;49.948;11.574;2022-08-14T14:09:42;3.90;;;3.60;;
8102;SDS011;4094;49.948;11.574;2022-08-14T14:12:19;4.83;;;4.00;;
8102;SDS011;4094;49.948;11.574;2022-08-14T14:15:10;4.73;;;3.90;;
8102;SDS011;4094;49.948;11.574;2022-08-14T14:17:43;4.03;;;3.63;;
8102;SDS011;4094;49.948;11.574;2022-08-14T14:20:14;3.53;;;3.33;;
8102;SDS011;4094;49.948;11.574;2022-08-14T14:23:02;4.13;;;3.73;;
8102;SDS011;4094;49.948;11.574;2022-08-14T14:25:39;3.80;;;3.50;;
8102;SDS011;4094;49.948;11.574;2022-08-14T14:28:15;3.80;;;3.50;;
8102;SDS011;4094;49.948;11.574;2022-08-14T14:30:52;3.83;;;3.40;;
8102;SDS011;4094;49.948;11.574;2022-08-14T14:33:24;4.00;;;3.60;;
8102;SDS011;4094;49.948;11.574;2022-08-14T14:36:15;3.70;;;3.50;;
8102;SDS011;4094;49.948;11.574;2022-08-14T14:38:51;3.97;;;3.63;;
8102;SDS011;4094;49.948;11.574;2022-08-14T14:41:22;3.73;;;3.37;;
8102;SDS011;4094;49.948;11.574;2022-08-14T14:44:04;6.90;;;3.57;;
8102;SDS011;4094;49.948;11.574;2022-08-14T14:46:37;3.83;;;3.53;;
8102;SDS011;4094;49.948;11.574;2022-08-14T14:49:08;4.30;;;3.30;;
8102;SDS011;4094;49.948;11.574;2022-08-14T14:51:41;4.87;;;3.47;;
8102;SDS011;4094;49.948;11.574;2022-08-14T14:54:18;3.50;;;3.30;;
8102;SDS011;4094;49.948;11.574;2022-08-14T14:57:04;4.00;;;3.30;;
8102;SDS011;4094;49.948;11.574;2022-08-14T14:59:35;4.37;;;3.97;;
8102;SDS011;4094;49.948;11.574;2022-08-14T15:02:07;4.80;;;3.53;;
8102;SDS011;4094;49.948;11.574;2022-08-14T15:04:39;3.87;;;3.57;;
8102;SDS011;4094;49.948;11.574;2022-08-14T15:07:10;3.80;;;3.53;;
8102;SDS011;4094;49.948;11.574;2022-08-14T15:09:42;4.17;;;3.37;;
8102;SDS011;4094;49.948;11.574;2022-08-14T15:12:14;4.20;;;3.90;;
8102;SDS011;4094;49.948;11.574;2022-08-14T15:15:04;4.93;;;3.70;;
8102;SDS011;4094;49.948;11.574;2022-08-14T15:17:37;3.90;;;3.60;;
8102;SDS011;4094;49.948;11.574;2022-08-14T15:20:09;3.73;;;3.43;;
8102;SDS011;4094;49.948;11.574;2022-08-14T15:22:56;3.63;;;3.33;;
8102;SDS011;4094;49.948;11.574;2022-08-14T15:25:27;4.33;;;3.67;;
8102;SDS011;4094;49.948;11.574;2022-08-14T15:27:58;4.53;;;4.17;;
8102;SDS011;4094;49.948;11.574;2022-08-14T15:30:28;4.13;;;3.83;;
8102;SDS011;4094;49.948;11.574;2022-08-14T15:33:00;4.20;;;3.80;;
8102;SDS011;4094;49.948;11.574;2022-08-14T15:35:31;4.90;;;4.10;;
8102;SDS011;4094;49.948;11.574;2022-08-14T15:38:04;4.17;;;3.80;;
8102;SDS011;4094;49.948;11.574;2022-08-14T15:40:35;5.13;;;3.77;;
8102;SDS011;4094;49.948;11.574;2022-08-14T15:43:07;3.97;;;3.47;;
8102;SDS011;4094;49.948;11.574;2022-08-14T15:45:39;5.33;;;3.43;;
8102;SDS011;4094;49.948;11.574;2022-08-14T15:48:10;4.37;;;3.97;;
8102;SDS011;4094;49.948;11.574;2022-08-14T15:50:49;4.57;;;4.17;;